createdAt,value
2018-05-09T00:02:04.923Z,3.30
2018-05-09T00:04:32.428Z,3.30
2018-05-09T00:06:59.914Z,2.97
2018-05-09T00:09:27.416Z,3.40
2018-05-09T00:11:55.031Z,3.10
2018-05-09T00:14:22.528Z,3.50
2018-05-09T00:16:50.032Z,3.10
2018-05-09T00:19:17.554Z,3.20
2018-05-09T00:21:45.956Z,3.17
2018-05-09T00:24:13.463Z,3.47
2018-05-09T00:26:40.963Z,3.57
2018-05-09T00:29:08.488Z,3.55
2018-05-09T00:31:35.990Z,3.50
2018-05-09T00:34:03.486Z,3.10
2018-05-09T00:36:30.988Z,3.50
2018-05-09T00:38:59.265Z,3.60
2018-05-09T00:41:27.569Z,3.50
2018-05-09T00:43:55.073Z,3.22
2018-05-09T00:46:22.603Z,3.60
2018-05-09T00:48:50.101Z,3.60
2018-05-09T00:51:17.592Z,3.37
2018-05-09T00:53:45.091Z,3.20
2018-05-09T00:56:12.587Z,3.20
2018-05-09T00:58:40.869Z,3.83
2018-05-09T01:01:09.140Z,3.55
2018-05-09T01:03:37.417Z,3.35
2018-05-09T01:06:05.682Z,3.65
2018-05-09T01:08:33.188Z,3.90
2018-05-09T01:11:00.689Z,3.50
2018-05-09T01:13:28.198Z,3.40
2018-05-09T01:15:55.699Z,3.70
2018-05-09T01:18:23.206Z,3.70
2018-05-09T01:20:50.727Z,3.60
2018-05-09T01:23:18.224Z,3.60
2018-05-09T01:25:45.760Z,3.50
2018-05-09T01:28:14.031Z,3.30
2018-05-09T01:30:42.352Z,3.90
2018-05-09T01:33:09.880Z,3.80
2018-05-09T01:35:38.141Z,3.60
2018-05-09T01:38:06.539Z,3.30
2018-05-09T01:40:34.102Z,3.90
2018-05-09T01:43:01.602Z,3.80
2018-05-09T01:45:29.100Z,3.60
2018-05-09T01:47:57.396Z,4.03
2018-05-09T01:50:24.915Z,4.12
2018-05-09T01:52:52.402Z,3.60
2018-05-09T01:55:19.970Z,3.97
2018-05-09T01:57:47.480Z,4.00
2018-05-09T02:00:14.992Z,3.97
2018-05-09T02:02:42.542Z,4.10
2018-05-09T02:05:10.104Z,4.20
2018-05-09T02:07:38.366Z,4.00
2018-05-09T02:10:06.626Z,4.10
2018-05-09T02:12:34.128Z,4.40
2018-05-09T02:15:01.631Z,4.45
2018-05-09T02:17:29.149Z,5.15
2018-05-09T02:19:56.644Z,5.00
2018-05-09T02:22:24.147Z,5.18
2018-05-09T02:24:51.638Z,5.20
2018-05-09T02:27:19.137Z,4.80
2018-05-09T02:29:47.403Z,4.83
2018-05-09T02:32:15.008Z,5.57
2018-05-09T02:34:42.508Z,5.05
2018-05-09T02:37:10.109Z,4.87
2018-05-09T02:39:38.408Z,5.05
2018-05-09T02:42:05.927Z,4.90
2018-05-09T02:44:34.192Z,5.20
2018-05-09T02:47:01.698Z,5.30
2018-05-09T02:49:29.191Z,5.32
2018-05-09T02:51:56.696Z,5.10
2018-05-09T02:54:24.203Z,5.20
2018-05-09T02:56:51.704Z,5.20
2018-05-09T02:59:19.975Z,4.80
2018-05-09T03:01:59.946Z,5.05
2018-05-09T03:04:28.571Z,5.40
2018-05-09T03:06:56.076Z,5.70
2018-05-09T03:09:24.344Z,5.60
2018-05-09T03:11:52.611Z,4.95
2018-05-09T03:14:21.020Z,4.90
2018-05-09T03:16:48.519Z,5.82
2018-05-09T03:19:16.027Z,6.00
2018-05-09T03:21:43.553Z,5.80
2018-05-09T03:24:11.066Z,5.80
2018-05-09T03:26:38.555Z,5.22
2018-05-09T03:29:06.051Z,5.23
2018-05-09T03:31:34.310Z,5.65
2018-05-09T03:34:01.831Z,5.70
2018-05-09T03:36:29.332Z,5.82
2018-05-09T03:38:57.586Z,5.70
2018-05-09T03:41:25.088Z,5.40
2018-05-09T03:43:52.594Z,6.20
2018-05-09T03:46:20.099Z,5.80
2018-05-09T03:48:48.358Z,5.43
2018-05-09T03:51:16.650Z,6.10
2018-05-09T03:53:44.907Z,5.82
2018-05-09T03:56:13.195Z,5.87
2018-05-09T03:58:41.468Z,6.00
2018-05-09T04:01:09.767Z,6.20
2018-05-09T04:06:50.476Z,5.70
2018-05-09T04:09:29.938Z,6.10
2018-05-09T04:11:57.391Z,6.10
2018-05-09T04:14:24.911Z,6.00
2018-05-09T04:16:52.464Z,5.93
2018-05-09T04:19:19.963Z,6.10
2018-05-09T04:21:47.473Z,5.65
2018-05-09T04:24:15.003Z,6.00
2018-05-09T04:26:42.499Z,5.80
2018-05-09T04:29:09.994Z,5.30
2018-05-09T04:31:37.540Z,5.60
2018-05-09T04:34:05.040Z,6.40
2018-05-09T04:36:32.527Z,5.40
2018-05-09T04:39:00.100Z,5.47
2018-05-09T04:41:28.531Z,5.37
2018-05-09T04:43:56.068Z,5.70
2018-05-09T04:46:23.567Z,5.75
2018-05-09T04:48:51.842Z,5.70
2018-05-09T04:51:19.415Z,5.70
2018-05-09T04:53:46.907Z,5.50
2018-05-09T04:56:14.413Z,5.80
2018-05-09T04:58:42.822Z,5.85
2018-05-09T05:01:10.334Z,6.07
2018-05-09T05:03:37.838Z,5.45
2018-05-09T05:06:05.347Z,5.60
2018-05-09T05:08:32.850Z,5.25
2018-05-09T05:11:00.352Z,5.57
2018-05-09T05:13:27.869Z,5.20
2018-05-09T05:15:55.387Z,5.40
2018-05-09T05:18:22.907Z,5.53
2018-05-09T05:20:50.411Z,5.43
2018-05-09T05:23:18.691Z,5.60
2018-05-09T05:25:46.973Z,5.30
2018-05-09T05:28:15.231Z,5.60
2018-05-09T05:30:42.815Z,5.37
2018-05-09T05:33:10.342Z,6.10
2018-05-09T05:35:37.856Z,5.70
2018-05-09T05:38:05.383Z,6.10
2018-05-09T05:40:33.637Z,5.87
2018-05-09T05:43:01.152Z,5.53
2018-05-09T05:45:28.750Z,5.63
2018-05-09T05:47:56.952Z,5.65
2018-05-09T05:50:25.229Z,6.40
2018-05-09T05:52:52.746Z,6.10
2018-05-09T05:55:20.359Z,5.80
2018-05-09T05:57:47.923Z,6.20
2018-05-09T06:00:15.427Z,6.20
2018-05-09T06:02:42.954Z,6.50
2018-05-09T06:05:10.447Z,6.32
2018-05-09T06:07:37.954Z,6.43
2018-05-09T06:10:05.531Z,6.47
2018-05-09T06:12:33.875Z,6.47
2018-05-09T06:15:02.152Z,6.10
2018-05-09T06:17:30.427Z,6.30
2018-05-09T06:19:58.695Z,6.40
2018-05-09T06:22:26.982Z,6.50
2018-05-09T06:24:54.513Z,6.30
2018-05-09T06:27:22.773Z,6.60
2018-05-09T06:29:50.275Z,6.40
2018-05-09T06:32:18.538Z,6.03
2018-05-09T06:34:47.684Z,6.50
2018-05-09T06:37:15.193Z,6.10
2018-05-09T06:39:43.465Z,6.20
2018-05-09T06:42:10.970Z,5.90
2018-05-09T06:44:38.472Z,6.00
2018-05-09T06:47:05.991Z,5.95
2018-05-09T06:49:33.513Z,5.70
2018-05-09T06:52:01.820Z,5.37
2018-05-09T06:54:29.331Z,5.20
2018-05-09T06:56:56.835Z,4.55
2018-05-09T06:59:24.343Z,4.60
2018-05-09T07:01:51.947Z,5.00
2018-05-09T07:04:19.464Z,4.80
2018-05-09T07:06:47.978Z,4.50
2018-05-09T07:09:16.024Z,4.95
2018-05-09T07:11:44.290Z,4.50
2018-05-09T07:14:11.866Z,5.22
2018-05-09T07:16:40.138Z,4.40
2018-05-09T07:19:08.412Z,4.10
2018-05-09T07:21:36.674Z,4.20
2018-05-09T07:24:04.209Z,4.10
2018-05-09T07:26:31.716Z,4.07
2018-05-09T07:28:59.216Z,4.37
2018-05-09T07:31:26.719Z,4.00
2018-05-09T07:33:55.026Z,4.23
2018-05-09T07:36:22.535Z,4.53
2018-05-09T07:38:51.544Z,4.30
2018-05-09T07:41:19.840Z,4.30
2018-05-09T07:43:47.338Z,4.37
2018-05-09T07:46:14.848Z,4.20
2018-05-09T07:48:43.143Z,4.70
2018-05-09T07:51:10.704Z,4.30
2018-05-09T07:53:38.976Z,4.20
2018-05-09T07:56:06.492Z,4.07
2018-05-09T07:58:34.112Z,4.00
2018-05-09T08:01:01.640Z,4.10
2018-05-09T08:03:29.907Z,4.15
2018-05-09T08:05:58.186Z,3.97
2018-05-09T08:08:25.723Z,4.40
2018-05-09T08:10:53.234Z,4.50
2018-05-09T08:13:20.771Z,4.18
2018-05-09T08:15:49.035Z,4.20
2018-05-09T08:18:16.564Z,4.55
2018-05-09T08:20:44.066Z,4.40
2018-05-09T08:23:12.331Z,4.67
2018-05-09T08:25:40.612Z,4.50
2018-05-09T08:28:08.878Z,4.47
2018-05-09T08:30:37.164Z,4.50
2018-05-09T08:33:05.430Z,4.80
2018-05-09T08:35:33.715Z,4.50
2018-05-09T08:38:01.996Z,4.97
2018-05-09T08:40:29.510Z,4.47
2018-05-09T08:42:57.013Z,4.20
2018-05-09T08:45:24.515Z,4.60
2018-05-09T08:47:52.031Z,4.30
2018-05-09T08:50:19.538Z,4.30
2018-05-09T08:52:47.090Z,4.60
2018-05-09T08:55:14.602Z,4.40
2018-05-09T08:57:42.872Z,4.40
2018-05-09T09:00:11.138Z,4.07
2018-05-09T09:02:39.426Z,3.60
2018-05-09T09:05:07.706Z,3.75
2018-05-09T09:07:35.227Z,4.20
2018-05-09T09:10:02.758Z,4.90
2018-05-09T09:12:30.262Z,4.40
2018-05-09T09:14:58.544Z,4.22
2018-05-09T09:17:26.819Z,4.30
2018-05-09T09:19:55.101Z,4.20
2018-05-09T09:22:23.411Z,4.00
2018-05-09T09:24:50.903Z,3.80
2018-05-09T09:27:18.399Z,3.60
2018-05-09T09:29:46.678Z,4.05
2018-05-09T09:32:14.175Z,3.60
2018-05-09T09:34:41.684Z,3.80
2018-05-09T09:37:09.944Z,3.70
2018-05-09T09:39:38.219Z,3.70
2018-05-09T09:42:06.491Z,3.90
2018-05-09T09:44:34.016Z,3.40
2018-05-09T09:47:01.509Z,3.90
2018-05-09T09:49:29.006Z,3.90
2018-05-09T09:51:56.506Z,3.60
2018-05-09T09:54:24.000Z,3.47
2018-05-09T09:56:52.267Z,3.67
2018-05-09T09:59:19.844Z,3.75
2018-05-09T10:01:47.368Z,3.70
2018-05-09T10:04:14.890Z,3.17
2018-05-09T10:06:42.393Z,3.90
2018-05-09T10:09:10.660Z,3.45
2018-05-09T10:11:38.186Z,3.85
2018-05-09T10:14:05.721Z,3.58
2018-05-09T10:16:33.233Z,3.83
2018-05-09T10:19:01.510Z,3.87
2018-05-09T10:21:29.013Z,3.75
2018-05-09T10:23:56.527Z,3.30
2018-05-09T10:26:24.335Z,3.80
2018-05-09T10:28:51.848Z,3.15
2018-05-09T10:31:19.379Z,3.40
2018-05-09T10:33:46.862Z,2.90
2018-05-09T10:36:14.363Z,3.20
2018-05-09T10:38:42.622Z,3.00
2018-05-09T10:41:10.907Z,3.30
2018-05-09T10:43:39.181Z,3.05
2018-05-09T10:46:07.479Z,3.25
2018-05-09T10:48:34.982Z,3.20
2018-05-09T10:51:02.496Z,3.83
2018-05-09T10:53:30.000Z,3.92
2018-05-09T10:55:57.508Z,4.10
2018-05-09T10:58:25.004Z,5.00
2018-05-09T11:00:52.519Z,4.03
2018-05-09T11:03:20.023Z,3.40
2018-05-09T11:05:47.520Z,3.50
2018-05-09T11:08:15.786Z,3.70
2018-05-09T11:10:43.273Z,3.60
2018-05-09T11:13:10.778Z,3.80
2018-05-09T11:15:38.399Z,3.50
2018-05-09T11:18:05.920Z,3.50
2018-05-09T11:20:33.427Z,4.50
2018-05-09T11:23:00.932Z,3.70
2018-05-09T11:25:28.903Z,3.40
2018-05-09T11:27:57.173Z,3.47
2018-05-09T11:30:24.724Z,4.05
2018-05-09T11:32:52.226Z,3.60
2018-05-09T11:35:19.746Z,3.97
2018-05-09T11:37:47.243Z,4.25
2018-05-09T11:40:14.765Z,3.67
2018-05-09T11:42:42.278Z,4.07
2018-05-09T11:45:09.786Z,4.32
2018-05-09T11:47:37.335Z,4.10
2018-05-09T11:50:04.848Z,4.95
2018-05-09T11:52:32.355Z,4.60
2018-05-09T11:54:59.902Z,3.65
2018-05-09T11:57:27.465Z,5.53
2018-05-09T11:59:54.959Z,4.37
2018-05-09T12:02:23.229Z,4.25
2018-05-09T12:04:51.491Z,4.10
2018-05-09T12:07:18.978Z,4.30
2018-05-09T12:09:46.489Z,4.82
2018-05-09T12:12:13.991Z,4.30
2018-05-09T12:14:41.491Z,4.10
2018-05-09T12:17:09.001Z,4.37
2018-05-09T12:19:37.271Z,4.53
2018-05-09T12:22:05.533Z,4.53
2018-05-09T12:24:33.949Z,4.45
2018-05-09T12:27:01.464Z,4.10
2018-05-09T12:29:29.724Z,4.30
2018-05-09T12:31:57.243Z,3.97
2018-05-09T12:34:24.755Z,4.10
2018-05-09T12:36:53.050Z,4.53
2018-05-09T12:39:21.307Z,3.80
2018-05-09T12:41:48.817Z,4.50
2018-05-09T12:44:16.325Z,4.45
2018-05-09T12:46:43.830Z,4.90
2018-05-09T12:49:11.341Z,3.60
2018-05-09T12:51:40.376Z,3.90
2018-05-09T12:54:07.954Z,3.90
2018-05-09T12:56:35.494Z,4.30
2018-05-09T12:59:02.993Z,4.20
2018-05-09T13:01:30.488Z,3.80
2018-05-09T13:03:58.041Z,3.67
2018-05-09T13:06:26.307Z,4.00
2018-05-09T13:08:54.605Z,3.90
2018-05-09T13:11:22.114Z,3.78
2018-05-09T13:13:49.617Z,3.75
2018-05-09T13:16:17.137Z,3.53
2018-05-09T13:18:44.635Z,3.12
2018-05-09T13:21:12.900Z,3.80
2018-05-09T13:23:40.414Z,3.50
2018-05-09T13:26:07.920Z,3.60
2018-05-09T13:28:36.201Z,3.30
2018-05-09T13:31:04.501Z,3.30
2018-05-09T13:33:32.014Z,4.10
2018-05-09T13:35:59.600Z,3.40
2018-05-09T13:38:27.108Z,3.08
2018-05-09T13:40:54.608Z,4.07
2018-05-09T13:43:22.883Z,3.22
2018-05-09T13:45:51.154Z,3.00
2018-05-09T13:48:19.458Z,3.50
2018-05-09T13:50:46.943Z,3.53
2018-05-09T13:53:14.450Z,3.40
2018-05-09T13:55:42.749Z,3.80
2018-05-09T13:58:10.321Z,3.40
2018-05-09T14:00:37.823Z,3.62
2018-05-09T14:03:05.333Z,3.60
2018-05-09T14:05:32.831Z,4.00
2018-05-09T14:08:00.350Z,4.25
2018-05-09T14:10:27.844Z,3.65
2018-05-09T14:12:55.367Z,3.60
2018-05-09T14:15:22.879Z,3.58
2018-05-09T14:17:51.167Z,4.07
2018-05-09T14:20:19.447Z,4.55
2018-05-09T14:22:47.709Z,3.90
2018-05-09T14:25:15.285Z,3.33
2018-05-09T14:27:42.753Z,3.30
2018-05-09T14:30:10.276Z,3.50
2018-05-09T14:32:37.878Z,3.70
2018-05-09T14:35:05.384Z,3.70
2018-05-09T14:37:32.885Z,3.90
2018-05-09T14:40:00.397Z,3.20
2018-05-09T14:42:27.912Z,3.28
2018-05-09T14:44:55.466Z,3.40
2018-05-09T14:47:22.959Z,2.92
2018-05-09T14:49:50.597Z,3.03
2018-05-09T14:52:18.109Z,2.90
2018-05-09T14:54:46.139Z,3.10
2018-05-09T14:57:13.651Z,3.70
2018-05-09T14:59:41.904Z,4.10
2018-05-09T15:02:09.406Z,3.60
2018-05-09T15:04:36.897Z,3.60
2018-05-09T15:07:04.392Z,3.40
2018-05-09T15:09:31.907Z,3.60
2018-05-09T15:11:59.455Z,3.90
2018-05-09T15:14:26.974Z,3.30
2018-05-09T15:16:55.231Z,3.50
2018-05-09T15:19:22.740Z,3.80
2018-05-09T15:21:50.277Z,3.60
2018-05-09T15:24:18.562Z,3.90
2018-05-09T15:26:46.844Z,4.40
2018-05-09T15:29:14.331Z,3.30
2018-05-09T15:31:41.840Z,4.15
2018-05-09T15:34:10.103Z,3.58
2018-05-09T15:36:37.611Z,3.93
2018-05-09T15:39:05.184Z,3.60
2018-05-09T15:41:32.703Z,3.60
2018-05-09T15:44:00.967Z,3.30
2018-05-09T15:46:29.229Z,3.70
2018-05-09T15:48:56.739Z,3.67
2018-05-09T15:51:24.249Z,3.40
2018-05-09T15:53:52.507Z,3.40
2018-05-09T15:56:20.010Z,3.90
2018-05-09T15:58:47.539Z,3.97
2018-05-09T16:01:15.058Z,4.00
2018-05-09T16:03:42.569Z,3.90
2018-05-09T16:06:10.855Z,4.00
2018-05-09T16:08:38.525Z,3.60
2018-05-09T16:11:06.027Z,3.80
2018-05-09T16:13:33.530Z,3.50
2018-05-09T16:16:01.791Z,3.92
2018-05-09T16:18:30.066Z,3.83
2018-05-09T16:20:58.322Z,4.22
2018-05-09T16:23:25.841Z,4.70
2018-05-09T16:25:53.348Z,3.90
2018-05-09T16:28:20.866Z,3.95
2018-05-09T16:30:48.384Z,3.67
2018-05-09T16:33:16.665Z,3.70
2018-05-09T16:35:44.932Z,5.30
2018-05-09T16:38:13.208Z,5.97
2018-05-09T16:40:41.474Z,4.30
2018-05-09T16:43:10.486Z,3.72
2018-05-09T16:45:38.763Z,3.75
2018-05-09T16:48:07.019Z,3.87
2018-05-09T16:50:34.719Z,4.30
2018-05-09T16:53:02.231Z,4.20
2018-05-09T16:55:29.827Z,5.25
2018-05-09T16:57:57.324Z,6.10
2018-05-09T17:00:24.843Z,4.03
2018-05-09T17:02:52.343Z,4.20
2018-05-09T17:05:19.834Z,4.00
2018-05-09T17:07:47.338Z,3.70
2018-05-09T17:10:14.872Z,3.73
2018-05-09T17:12:42.366Z,3.73
2018-05-09T17:15:09.878Z,3.50
2018-05-09T17:17:38.134Z,3.87
2018-05-09T17:20:05.640Z,3.77
2018-05-09T17:22:34.074Z,5.30
2018-05-09T17:25:01.682Z,3.80
2018-05-09T17:27:29.193Z,4.05
2018-05-09T17:29:56.711Z,3.60
2018-05-09T17:32:24.202Z,4.20
2018-05-09T17:34:51.703Z,4.00
2018-05-09T17:37:19.221Z,4.20
2018-05-09T17:39:46.819Z,4.50
2018-05-09T17:42:14.326Z,3.97
2018-05-09T17:44:41.822Z,4.20
2018-05-09T17:47:10.087Z,4.05
2018-05-09T17:49:38.391Z,4.27
2018-05-09T17:52:05.908Z,3.70
2018-05-09T17:54:33.411Z,3.73
2018-05-09T17:57:00.911Z,4.77
2018-05-09T17:59:28.418Z,3.90
2018-05-09T18:01:55.931Z,4.30
2018-05-09T18:04:23.447Z,4.18
2018-05-09T18:06:50.943Z,3.80
2018-05-09T18:09:18.451Z,5.25
2018-05-09T18:11:45.949Z,5.37
2018-05-09T18:14:13.458Z,4.32
2018-05-09T18:16:42.109Z,3.70
2018-05-09T18:19:09.600Z,4.20
2018-05-09T18:21:37.868Z,3.53
2018-05-09T18:24:06.131Z,4.03
2018-05-09T18:26:33.717Z,3.50
2018-05-09T18:29:01.227Z,3.70
2018-05-09T18:31:28.738Z,4.00
2018-05-09T18:33:56.300Z,3.80
2018-05-09T18:36:23.811Z,3.72
2018-05-09T18:38:51.323Z,3.80
2018-05-09T18:41:18.840Z,3.70
2018-05-09T18:43:46.344Z,3.30
2018-05-09T18:46:13.850Z,4.07
2018-05-09T18:48:42.167Z,3.60
2018-05-09T18:51:09.655Z,3.50
2018-05-09T18:53:37.154Z,4.10
2018-05-09T18:56:05.441Z,3.62
2018-05-09T18:58:33.734Z,4.00
2018-05-09T19:01:01.226Z,3.92
2018-05-09T19:03:28.730Z,4.10
2018-05-09T19:05:56.994Z,4.40
2018-05-09T19:08:24.492Z,3.97
2018-05-09T19:10:52.002Z,3.87
2018-05-09T19:13:19.507Z,5.22
2018-05-09T19:15:47.050Z,5.20
2018-05-09T19:18:15.316Z,4.18
2018-05-09T19:20:43.610Z,5.37
2018-05-09T19:23:11.168Z,5.20
2018-05-09T19:25:38.676Z,4.30
2018-05-09T19:28:06.174Z,5.57
2018-05-09T19:30:34.441Z,4.70
2018-05-09T19:33:02.706Z,5.30
2018-05-09T19:35:30.209Z,4.60
2018-05-09T19:37:57.719Z,4.30
2018-05-09T19:40:25.214Z,5.03
2018-05-09T19:42:53.483Z,4.40
2018-05-09T19:45:20.993Z,4.40
2018-05-09T19:47:48.516Z,4.20
2018-05-09T19:50:16.015Z,3.90
2018-05-09T19:52:43.512Z,5.10
2018-05-09T19:55:11.830Z,4.60
2018-05-09T19:57:39.351Z,4.70
2018-05-09T20:00:06.856Z,4.40
2018-05-09T20:02:34.347Z,4.00
2018-05-09T20:05:02.848Z,4.20
2018-05-09T20:07:30.347Z,4.20
2018-05-09T20:09:57.844Z,4.37
2018-05-09T20:12:26.126Z,6.10
2018-05-09T20:14:54.403Z,4.87
2018-05-09T20:17:22.682Z,5.95
2018-05-09T20:19:50.205Z,6.32
2018-05-09T20:22:17.803Z,5.70
2018-05-09T20:24:45.307Z,6.03
2018-05-09T20:27:12.806Z,5.82
2018-05-09T20:29:41.063Z,5.60
2018-05-09T20:32:20.459Z,5.10
2018-05-09T20:34:47.946Z,5.00
2018-05-09T20:37:15.461Z,6.10
2018-05-09T20:39:43.022Z,5.40
2018-05-09T20:42:10.590Z,4.97
2018-05-09T20:44:38.079Z,4.83
2018-05-09T20:47:05.579Z,4.60
2018-05-09T20:49:33.862Z,4.60
2018-05-09T20:52:02.148Z,5.13
2018-05-09T20:54:29.642Z,4.83
2018-05-09T20:56:57.176Z,5.10
2018-05-09T20:59:24.694Z,5.40
2018-05-09T21:01:52.981Z,5.15
2018-05-09T21:04:21.261Z,5.60
2018-05-09T21:06:49.535Z,5.93
2018-05-09T21:09:17.873Z,5.82
2018-05-09T21:11:58.058Z,5.35
2018-05-09T21:14:26.324Z,5.00
2018-05-09T21:16:53.845Z,5.63
2018-05-09T21:19:21.355Z,5.28
2018-05-09T21:21:49.636Z,5.72
2018-05-09T21:24:17.937Z,5.30
2018-05-09T21:26:45.436Z,5.50
2018-05-09T21:29:12.928Z,5.30
2018-05-09T21:31:41.244Z,5.50
2018-05-09T21:34:08.790Z,5.32
2018-05-09T21:36:36.305Z,5.20
2018-05-09T21:39:05.498Z,5.20
2018-05-09T21:41:33.016Z,5.40
2018-05-09T21:44:00.507Z,5.80
2018-05-09T21:46:28.007Z,6.07
2018-05-09T21:48:55.514Z,6.00
2018-05-09T21:51:23.039Z,5.90
2018-05-09T21:53:50.560Z,5.57
2018-05-09T21:56:18.819Z,5.13
2018-05-09T21:58:47.129Z,4.93
2018-05-09T22:01:15.585Z,4.80
2018-05-09T22:03:43.065Z,4.70
2018-05-09T22:06:10.632Z,5.10
2018-05-09T22:08:38.155Z,4.45
2018-05-09T22:11:05.659Z,4.70
2018-05-09T22:13:33.199Z,5.03
2018-05-09T22:16:01.476Z,5.80
2018-05-09T22:18:28.970Z,4.50
2018-05-09T22:20:56.467Z,4.70
2018-05-09T22:23:25.475Z,4.97
2018-05-09T22:25:53.738Z,5.25
2018-05-09T22:28:21.254Z,5.05
2018-05-09T22:30:48.747Z,5.00
2018-05-09T22:33:16.293Z,5.37
2018-05-09T22:35:43.904Z,5.03
2018-05-09T22:38:12.182Z,4.85
2018-05-09T22:40:39.696Z,5.07
2018-05-09T22:43:07.208Z,5.30
2018-05-09T22:45:34.732Z,5.33
2018-05-09T22:48:03.015Z,5.70
2018-05-09T22:50:31.287Z,6.00
2018-05-09T22:52:59.548Z,5.80
2018-05-09T22:55:27.059Z,5.50
2018-05-09T22:57:54.570Z,6.00
2018-05-09T23:00:22.085Z,5.37
2018-05-09T23:02:49.603Z,6.15
2018-05-09T23:05:17.122Z,5.62
2018-05-09T23:07:44.622Z,6.07
2018-05-09T23:10:12.170Z,5.97
2018-05-09T23:12:39.663Z,6.10
2018-05-09T23:15:07.175Z,6.40
2018-05-09T23:17:34.756Z,5.68
2018-05-09T23:20:03.020Z,6.05
2018-05-09T23:22:31.291Z,6.00
2018-05-09T23:24:58.787Z,6.05
2018-05-09T23:27:26.304Z,6.17
2018-05-09T23:29:53.816Z,6.50
2018-05-09T23:32:21.351Z,6.55
2018-05-09T23:34:48.861Z,6.18
2018-05-09T23:37:16.366Z,6.07
2018-05-09T23:39:43.918Z,6.10
2018-05-09T23:42:12.177Z,6.40
2018-05-09T23:44:40.436Z,6.30
2018-05-09T23:47:07.979Z,5.90
2018-05-09T23:49:35.486Z,6.72
2018-05-09T23:52:03.074Z,5.70
2018-05-09T23:54:30.579Z,5.80
2018-05-09T23:56:58.079Z,6.50
2018-05-09T23:59:25.570Z,6.60
